createdAt,value
2018-07-22T00:00:42.707Z,100.00
2018-07-22T00:03:11.313Z,100.00
2018-07-22T00:05:39.876Z,100.00
2018-07-22T00:08:08.449Z,100.00
2018-07-22T00:10:37.002Z,100.00
2018-07-22T00:13:05.582Z,100.00
2018-07-22T00:15:34.178Z,100.00
2018-07-22T00:18:02.726Z,100.00
2018-07-22T00:20:31.341Z,100.00
2018-07-22T00:22:59.895Z,100.00
2018-07-22T00:25:28.442Z,100.00
2018-07-22T00:27:56.945Z,100.00
2018-07-22T00:30:25.534Z,100.00
2018-07-22T00:32:54.068Z,100.00
2018-07-22T00:35:22.714Z,100.00
2018-07-22T00:37:51.490Z,100.00
2018-07-22T00:40:20.067Z,100.00
2018-07-22T00:42:49.855Z,100.00
2018-07-22T00:45:18.556Z,100.00
2018-07-22T00:47:47.239Z,100.00
2018-07-22T00:50:15.876Z,100.00
2018-07-22T00:52:44.430Z,100.00
2018-07-22T00:55:13.025Z,100.00
2018-07-22T00:57:41.627Z,100.00
2018-07-22T01:00:10.319Z,100.00
2018-07-22T01:02:38.903Z,100.00
2018-07-22T01:05:07.746Z,100.00
2018-07-22T01:07:36.298Z,100.00
2018-07-22T01:10:05.031Z,100.00
2018-07-22T01:12:33.757Z,100.00
2018-07-22T01:15:02.396Z,100.00
2018-07-22T01:17:30.963Z,100.00
2018-07-22T01:19:59.559Z,100.00
2018-07-22T01:22:28.314Z,100.00
2018-07-22T01:24:56.846Z,100.00
2018-07-22T01:27:25.418Z,100.00
2018-07-22T01:29:54.146Z,100.00
2018-07-22T01:32:22.619Z,100.00
2018-07-22T01:34:51.184Z,100.00
2018-07-22T01:37:20.355Z,100.00
2018-07-22T01:39:49.475Z,100.00
2018-07-22T01:42:18.182Z,100.00
2018-07-22T01:44:46.816Z,100.00
2018-07-22T01:47:15.314Z,100.00
2018-07-22T01:49:43.903Z,100.00
2018-07-22T01:52:12.543Z,100.00
2018-07-22T01:54:41.098Z,100.00
2018-07-22T02:02:40.658Z,100.00
2018-07-22T02:05:09.184Z,100.00
2018-07-22T02:07:37.816Z,100.00
2018-07-22T02:10:06.559Z,100.00
2018-07-22T02:12:35.070Z,100.00
2018-07-22T02:15:03.989Z,100.00
2018-07-22T02:17:32.593Z,100.00
2018-07-22T02:20:01.208Z,100.00
2018-07-22T02:22:29.663Z,100.00
2018-07-22T02:24:58.161Z,100.00
2018-07-22T02:27:26.653Z,100.00
2018-07-22T02:29:55.113Z,100.00
2018-07-22T02:32:23.607Z,100.00
2018-07-22T02:34:52.102Z,100.00
2018-07-22T02:37:20.654Z,100.00
2018-07-22T02:39:49.236Z,100.00
2018-07-22T02:42:17.711Z,100.00
2018-07-22T02:44:46.226Z,100.00
2018-07-22T02:47:14.813Z,100.00
2018-07-22T02:49:43.830Z,100.00
2018-07-22T02:52:12.320Z,100.00
2018-07-22T02:54:41.016Z,100.00
2018-07-22T02:57:10.167Z,100.00
2018-07-22T02:59:38.763Z,100.00
2018-07-22T03:02:07.361Z,100.00
2018-07-22T03:04:37.018Z,100.00
2018-07-22T03:07:06.572Z,100.00
2018-07-22T03:09:35.293Z,100.00
2018-07-22T03:12:04.532Z,100.00
2018-07-22T03:14:33.280Z,100.00
2018-07-22T03:17:01.787Z,100.00
2018-07-22T03:19:30.602Z,100.00
2018-07-22T03:21:59.314Z,100.00
2018-07-22T03:24:27.895Z,100.00
2018-07-22T03:26:56.488Z,100.00
2018-07-22T03:29:25.075Z,100.00
2018-07-22T03:31:53.596Z,100.00
2018-07-22T03:34:22.130Z,100.00
2018-07-22T03:36:55.095Z,100.00
2018-07-22T03:39:24.603Z,100.00
2018-07-22T03:41:53.157Z,100.00
2018-07-22T03:44:22.029Z,100.00
2018-07-22T03:46:50.553Z,100.00
2018-07-22T03:49:19.119Z,100.00
2018-07-22T03:51:47.838Z,100.00
2018-07-22T03:54:16.429Z,100.00
2018-07-22T03:56:44.959Z,100.00
2018-07-22T03:59:13.619Z,100.00
2018-07-22T04:01:42.147Z,100.00
2018-07-22T04:04:10.770Z,100.00
2018-07-22T04:06:39.304Z,100.00
2018-07-22T04:09:09.487Z,100.00
2018-07-22T04:11:38.211Z,100.00
2018-07-22T04:14:06.740Z,100.00
2018-07-22T04:16:35.350Z,100.00
2018-07-22T04:19:03.960Z,100.00
2018-07-22T04:21:32.492Z,100.00
2018-07-22T04:24:01.214Z,100.00
2018-07-22T04:26:29.714Z,100.00
2018-07-22T04:28:58.162Z,100.00
2018-07-22T04:31:26.762Z,100.00
2018-07-22T04:33:55.285Z,100.00
2018-07-22T04:36:23.861Z,100.00
2018-07-22T04:38:52.529Z,100.00
2018-07-22T04:41:21.078Z,100.00
2018-07-22T04:43:49.750Z,100.00
2018-07-22T04:46:18.422Z,100.00
2018-07-22T04:48:46.962Z,100.00
2018-07-22T04:51:15.442Z,100.00
2018-07-22T04:53:43.994Z,100.00
2018-07-22T04:56:12.627Z,100.00
2018-07-22T04:58:41.193Z,100.00
2018-07-22T05:01:09.793Z,100.00
2018-07-22T05:03:38.309Z,100.00
2018-07-22T05:06:06.914Z,100.00
2018-07-22T05:08:35.482Z,100.00
2018-07-22T05:11:04.233Z,100.00
2018-07-22T05:13:32.772Z,100.00
2018-07-22T05:16:01.538Z,100.00
2018-07-22T05:18:30.078Z,100.00
2018-07-22T05:20:58.571Z,100.00
2018-07-22T05:23:27.011Z,100.00
2018-07-22T05:25:55.505Z,99.80
2018-07-22T05:28:24.029Z,98.48
2018-07-22T05:30:52.493Z,96.81
2018-07-22T05:33:21.050Z,94.01
2018-07-22T05:35:49.569Z,91.93
2018-07-22T05:38:18.182Z,92.03
2018-07-22T05:40:47.035Z,92.95
2018-07-22T05:43:15.474Z,93.56
2018-07-22T05:45:43.941Z,94.93
2018-07-22T05:48:12.468Z,94.76
2018-07-22T05:50:41.206Z,94.12
2018-07-22T05:53:09.798Z,94.12
2018-07-22T05:55:38.246Z,93.39
2018-07-22T05:58:06.782Z,93.44
2018-07-22T06:00:35.380Z,92.97
2018-07-22T06:03:04.414Z,91.37
2018-07-22T06:05:33.058Z,89.24
2018-07-22T06:08:01.818Z,87.89
2018-07-22T06:10:30.497Z,85.76
2018-07-22T06:12:59.023Z,86.41
2018-07-22T06:15:27.554Z,86.20
2018-07-22T06:17:56.143Z,84.83
2018-07-22T06:20:24.747Z,84.09
2018-07-22T06:22:53.614Z,84.07
2018-07-22T06:25:22.189Z,84.18
2018-07-22T06:27:50.726Z,83.87
2018-07-22T06:30:19.320Z,84.35
2018-07-22T06:32:47.895Z,83.49
2018-07-22T06:35:16.485Z,83.92
2018-07-22T06:37:44.908Z,84.01
2018-07-22T06:40:13.386Z,83.78
2018-07-22T06:42:41.915Z,82.99
2018-07-22T06:45:10.769Z,82.66
2018-07-22T06:47:39.361Z,80.51
2018-07-22T06:50:07.835Z,80.42
2018-07-22T06:52:36.336Z,80.02
2018-07-22T06:55:04.944Z,79.08
2018-07-22T06:57:33.640Z,78.95
2018-07-22T07:00:02.166Z,78.25
2018-07-22T07:02:30.692Z,77.75
2018-07-22T07:04:59.393Z,78.12
2018-07-22T07:07:28.175Z,74.81
2018-07-22T07:09:56.830Z,74.64
2018-07-22T07:12:25.318Z,75.32
2018-07-22T07:14:53.991Z,74.91
2018-07-22T07:17:22.735Z,74.88
2018-07-22T07:19:51.460Z,74.79
2018-07-22T07:22:20.233Z,75.96
2018-07-22T07:24:49.001Z,75.50
2018-07-22T07:27:17.520Z,75.86
2018-07-22T07:29:46.190Z,74.43
2018-07-22T07:32:14.693Z,72.95
2018-07-22T07:34:43.146Z,72.59
2018-07-22T07:37:11.739Z,70.97
2018-07-22T07:39:40.389Z,69.71
2018-07-22T07:42:09.392Z,69.83
2018-07-22T07:44:37.886Z,68.95
2018-07-22T07:47:06.898Z,69.91
2018-07-22T07:49:35.843Z,70.23
2018-07-22T07:52:04.433Z,69.11
2018-07-22T07:54:33.003Z,67.57
2018-07-22T07:57:01.576Z,67.27
2018-07-22T07:59:30.335Z,67.17
2018-07-22T08:01:58.839Z,65.25
2018-07-22T08:04:27.487Z,64.54
2018-07-22T08:06:56.198Z,63.71
2018-07-22T08:09:24.721Z,61.59
2018-07-22T08:11:53.256Z,60.36
2018-07-22T08:14:21.943Z,56.41
2018-07-22T08:16:50.637Z,54.54
2018-07-22T08:19:19.262Z,54.47
2018-07-22T08:21:48.439Z,55.26
2018-07-22T08:24:16.917Z,55.22
2018-07-22T08:26:45.462Z,53.18
2018-07-22T08:29:26.983Z,48.90
2018-07-22T08:31:55.851Z,48.64
2018-07-22T08:34:24.450Z,47.63
2018-07-22T08:36:52.955Z,47.96
2018-07-22T08:39:22.716Z,46.30
2018-07-22T08:41:52.178Z,45.96
2018-07-22T08:44:20.958Z,46.89
2018-07-22T08:46:49.700Z,47.09
2018-07-22T08:49:18.761Z,45.50
2018-07-22T08:51:47.456Z,46.22
2018-07-22T08:54:16.059Z,44.77
2018-07-22T08:56:44.605Z,43.55
2018-07-22T08:59:13.511Z,41.69
2018-07-22T09:01:42.277Z,41.92
2018-07-22T09:04:10.819Z,40.54
2018-07-22T09:06:39.382Z,41.13
2018-07-22T09:09:09.799Z,39.38
2018-07-22T09:11:39.485Z,38.46
2018-07-22T09:14:08.922Z,38.07
2018-07-22T09:16:37.652Z,41.68
2018-07-22T09:19:06.254Z,40.53
2018-07-22T09:21:34.776Z,39.92
2018-07-22T09:24:03.391Z,38.88
2018-07-22T09:26:32.078Z,38.57
2018-07-22T09:29:00.594Z,39.07
2018-07-22T09:31:29.277Z,39.54
2018-07-22T09:33:57.741Z,40.86
2018-07-22T09:36:26.253Z,41.11
2018-07-22T09:38:54.894Z,39.60
2018-07-22T09:41:23.399Z,39.66
2018-07-22T09:43:51.968Z,39.61
2018-07-22T09:46:20.516Z,39.76
2018-07-22T09:48:49.146Z,40.50
2018-07-22T09:51:17.842Z,38.80
2018-07-22T09:53:46.348Z,37.75
2018-07-22T09:56:14.817Z,36.53
2018-07-22T09:58:43.319Z,36.69
2018-07-22T10:01:11.971Z,34.49
2018-07-22T10:03:40.662Z,34.86
2018-07-22T10:06:09.329Z,32.84
2018-07-22T10:08:38.738Z,33.17
2018-07-22T10:11:07.341Z,30.76
2018-07-22T10:13:36.319Z,30.31
2018-07-22T10:16:04.819Z,28.86
2018-07-22T10:18:33.394Z,28.54
2018-07-22T10:21:01.910Z,28.66
2018-07-22T10:23:30.610Z,28.32
2018-07-22T10:25:59.193Z,27.92
2018-07-22T10:28:27.899Z,27.00
2018-07-22T10:30:56.438Z,27.15
2018-07-22T10:33:24.988Z,27.05
2018-07-22T10:35:53.611Z,25.55
2018-07-22T10:38:22.042Z,27.02
2018-07-22T10:40:51.103Z,23.87
2018-07-22T10:43:23.837Z,23.28
2018-07-22T10:45:52.698Z,23.74
2018-07-22T10:48:21.230Z,23.49
2018-07-22T10:50:49.740Z,24.41
2018-07-22T10:53:18.456Z,26.23
2018-07-22T10:55:47.249Z,26.30
2018-07-22T10:58:15.746Z,26.77
2018-07-22T11:00:44.359Z,27.06
2018-07-22T11:04:15.879Z,31.58
2018-07-22T11:06:44.621Z,25.37
2018-07-22T11:09:13.374Z,22.92
2018-07-22T11:11:41.914Z,25.02
2018-07-22T11:14:10.544Z,25.95
2018-07-22T11:16:39.570Z,23.11
2018-07-22T11:19:08.370Z,22.89
2018-07-22T11:21:37.092Z,25.63
2018-07-22T11:24:06.053Z,24.47
2018-07-22T11:26:34.851Z,22.84
2018-07-22T11:29:03.551Z,23.84
2018-07-22T11:31:32.171Z,23.20
2018-07-22T11:34:00.714Z,24.00
2018-07-22T11:36:29.230Z,23.13
2018-07-22T11:38:57.850Z,22.21
2018-07-22T11:41:26.462Z,20.90
2018-07-22T11:43:55.107Z,20.58
2018-07-22T11:46:23.775Z,20.77
2018-07-22T11:48:52.343Z,19.96
2018-07-22T11:51:20.847Z,18.83
2018-07-22T11:53:49.519Z,17.58
2018-07-22T11:56:22.957Z,16.94
2018-07-22T11:58:51.569Z,19.38
2018-07-22T12:01:20.281Z,19.30
2018-07-22T12:03:48.979Z,18.13
2018-07-22T12:06:17.470Z,17.20
2018-07-22T12:08:46.018Z,16.71
2018-07-22T12:11:14.559Z,16.91
2018-07-22T12:13:43.286Z,15.45
2018-07-22T12:16:11.822Z,15.57
2018-07-22T12:18:40.401Z,14.64
2018-07-22T12:21:08.945Z,13.76
2018-07-22T12:23:37.451Z,16.29
2018-07-22T12:26:05.954Z,14.12
2018-07-22T12:28:34.523Z,14.96
2018-07-22T12:31:03.117Z,13.47
2018-07-22T12:33:32.283Z,12.34
2018-07-22T12:36:00.763Z,13.64
2018-07-22T12:38:29.278Z,12.87
2018-07-22T12:40:57.803Z,14.43
2018-07-22T12:43:26.581Z,15.04
2018-07-22T12:45:55.088Z,14.23
2018-07-22T12:48:23.587Z,13.14
2018-07-22T12:50:52.163Z,13.61
2018-07-22T12:53:20.620Z,16.29
2018-07-22T12:55:49.139Z,19.54
2018-07-22T12:58:17.643Z,21.50
2018-07-22T13:00:46.222Z,21.34
2018-07-22T13:03:14.898Z,22.82
2018-07-22T13:05:43.398Z,22.99
2018-07-22T13:08:12.043Z,22.89
2018-07-22T13:10:40.645Z,23.75
2018-07-22T13:13:09.221Z,23.39
2018-07-22T13:15:37.807Z,20.89
2018-07-22T13:18:11.134Z,19.13
2018-07-22T13:20:39.894Z,19.86
2018-07-22T13:23:09.172Z,21.35
2018-07-22T13:25:37.945Z,21.07
2018-07-22T13:28:06.821Z,26.05
2018-07-22T13:30:35.463Z,28.22
2018-07-22T13:33:03.997Z,25.99
2018-07-22T13:35:32.730Z,19.73
2018-07-22T13:38:01.500Z,19.53
2018-07-22T13:40:30.010Z,21.07
2018-07-22T13:42:58.570Z,26.17
2018-07-22T13:45:27.148Z,28.70
2018-07-22T13:47:55.676Z,30.46
2018-07-22T13:50:24.529Z,31.21
2018-07-22T13:52:53.097Z,27.98
2018-07-22T13:55:21.715Z,30.61
2018-07-22T13:57:50.287Z,31.78
2018-07-22T14:00:18.974Z,29.69
2018-07-22T14:02:47.442Z,24.32
2018-07-22T14:05:16.178Z,20.52
2018-07-22T14:07:44.695Z,17.56
2018-07-22T14:10:13.315Z,17.18
2018-07-22T14:12:41.830Z,16.08
2018-07-22T14:15:14.505Z,15.16
2018-07-22T14:17:43.260Z,13.64
2018-07-22T14:20:11.745Z,14.45
2018-07-22T14:22:40.724Z,14.25
2018-07-22T14:25:09.589Z,18.54
2018-07-22T14:27:38.266Z,22.84
2018-07-22T14:30:06.842Z,18.95
2018-07-22T14:32:35.494Z,18.42
2018-07-22T14:35:04.212Z,19.10
2018-07-22T14:37:32.854Z,17.11
2018-07-22T14:40:01.603Z,20.21
2018-07-22T14:42:30.203Z,22.67
2018-07-22T14:44:58.834Z,20.74
2018-07-22T14:47:27.467Z,17.69
2018-07-22T14:49:56.827Z,19.74
2018-07-22T14:52:25.386Z,21.60
2018-07-22T14:54:54.079Z,18.16
2018-07-22T14:57:22.582Z,17.04
2018-07-22T14:59:52.327Z,16.72
2018-07-22T15:02:21.035Z,14.53
2018-07-22T15:04:53.535Z,17.73
2018-07-22T15:07:22.078Z,16.92
2018-07-22T15:09:50.696Z,19.79
2018-07-22T15:12:19.183Z,21.69
2018-07-22T15:14:47.898Z,23.62
2018-07-22T15:17:16.460Z,23.37
2018-07-22T15:19:45.375Z,24.22
2018-07-22T15:22:14.216Z,25.13
2018-07-22T15:24:44.558Z,21.92
2018-07-22T15:27:13.046Z,21.53
2018-07-22T15:29:41.851Z,20.36
2018-07-22T15:32:10.567Z,21.61
2018-07-22T15:34:39.335Z,23.54
2018-07-22T15:37:07.959Z,23.72
2018-07-22T15:39:36.705Z,19.55
2018-07-22T15:42:05.314Z,20.00
2018-07-22T15:44:33.866Z,20.87
2018-07-22T15:47:02.551Z,20.19
2018-07-22T15:49:31.014Z,21.81
2018-07-22T15:51:59.623Z,19.59
2018-07-22T15:54:28.217Z,19.39
2018-07-22T15:56:56.750Z,19.69
2018-07-22T15:59:25.479Z,17.10
2018-07-22T16:01:54.257Z,16.85
2018-07-22T16:04:23.091Z,20.79
2018-07-22T16:06:51.665Z,20.25
2018-07-22T16:09:20.161Z,18.86
2018-07-22T16:11:48.877Z,21.88
2018-07-22T16:14:17.699Z,24.74
2018-07-22T16:16:47.035Z,26.47
2018-07-22T16:19:15.952Z,28.70
2018-07-22T16:21:44.489Z,29.83
2018-07-22T16:24:13.357Z,30.03
2018-07-22T16:26:41.947Z,28.42
2018-07-22T16:29:10.719Z,24.19
2018-07-22T16:35:12.347Z,21.01
2018-07-22T16:37:41.055Z,20.83
2018-07-22T16:40:09.734Z,20.68
2018-07-22T16:42:38.502Z,20.31
2018-07-22T16:45:07.051Z,19.42
2018-07-22T16:47:36.514Z,19.70
2018-07-22T16:50:05.356Z,19.39
2018-07-22T16:52:34.130Z,19.08
2018-07-22T16:55:02.755Z,19.89
2018-07-22T16:57:32.308Z,20.06
2018-07-22T17:00:00.879Z,20.56
2018-07-22T17:02:29.973Z,20.36
2018-07-22T17:04:58.920Z,20.31
2018-07-22T17:07:27.437Z,19.39
2018-07-22T17:09:55.965Z,19.85
2018-07-22T17:12:24.706Z,20.68
2018-07-22T17:14:53.310Z,19.98
2018-07-22T17:17:21.810Z,21.16
2018-07-22T17:19:50.479Z,20.65
2018-07-22T17:22:18.974Z,22.32
2018-07-22T17:24:48.545Z,22.51
2018-07-22T17:27:17.043Z,22.52
2018-07-22T17:29:46.550Z,22.48
2018-07-22T17:32:15.002Z,22.41
2018-07-22T17:34:43.673Z,26.19
2018-07-22T17:37:12.170Z,25.94
2018-07-22T17:39:40.702Z,27.92
2018-07-22T17:42:09.267Z,26.32
2018-07-22T17:44:37.830Z,25.59
2018-07-22T17:47:06.462Z,25.60
2018-07-22T17:49:35.213Z,25.74
2018-07-22T17:52:03.641Z,26.25
2018-07-22T17:54:32.226Z,24.73
2018-07-22T17:57:00.814Z,26.15
2018-07-22T17:59:29.449Z,27.74
2018-07-22T18:01:57.975Z,28.67
2018-07-22T18:04:26.478Z,32.26
2018-07-22T18:06:55.094Z,34.26
2018-07-22T18:09:23.701Z,36.33
2018-07-22T18:11:52.289Z,38.02
2018-07-22T18:14:21.071Z,38.36
2018-07-22T18:16:49.643Z,39.14
2018-07-22T18:19:18.236Z,40.42
2018-07-22T18:21:46.940Z,41.44
2018-07-22T18:24:15.505Z,42.49
2018-07-22T18:26:44.011Z,43.34
2018-07-22T18:29:12.627Z,44.39
2018-07-22T18:31:41.166Z,45.56
2018-07-22T18:34:09.823Z,47.43
2018-07-22T18:36:38.323Z,49.25
2018-07-22T18:39:09.135Z,51.24
2018-07-22T18:41:37.744Z,52.05
2018-07-22T18:44:06.799Z,53.42
2018-07-22T18:46:35.795Z,53.93
2018-07-22T18:49:04.343Z,53.84
2018-07-22T18:51:32.939Z,53.54
2018-07-22T18:54:01.522Z,54.13
2018-07-22T18:56:30.059Z,54.89
2018-07-22T18:58:58.610Z,55.97
2018-07-22T19:01:27.146Z,55.06
2018-07-22T19:03:55.757Z,55.94
2018-07-22T19:06:24.459Z,56.65
2018-07-22T19:08:52.996Z,56.08
2018-07-22T19:11:21.553Z,56.73
2018-07-22T19:13:50.477Z,55.85
2018-07-22T19:16:19.306Z,56.34
2018-07-22T19:18:47.925Z,54.94
2018-07-22T19:21:16.623Z,54.54
2018-07-22T19:23:45.255Z,54.22
2018-07-22T19:26:13.783Z,55.84
2018-07-22T19:28:42.415Z,59.32
2018-07-22T19:31:10.927Z,62.53
2018-07-22T19:33:39.469Z,63.86
2018-07-22T19:36:08.038Z,64.84
2018-07-22T19:38:36.614Z,65.22
2018-07-22T19:41:05.194Z,65.23
2018-07-22T19:43:33.820Z,63.53
2018-07-22T19:46:03.450Z,63.04
2018-07-22T19:48:32.212Z,62.03
2018-07-22T19:51:00.823Z,62.02
2018-07-22T19:53:29.418Z,61.37
2018-07-22T19:55:58.055Z,61.42
2018-07-22T19:58:26.557Z,62.02
2018-07-22T20:00:55.322Z,62.34
2018-07-22T20:03:23.964Z,63.33
2018-07-22T20:05:52.682Z,63.16
2018-07-22T20:08:21.222Z,64.08
2018-07-22T20:10:50.031Z,64.18
2018-07-22T20:13:18.888Z,64.50
2018-07-22T20:15:47.529Z,63.99
2018-07-22T20:18:16.269Z,63.82
2018-07-22T20:20:44.842Z,63.27
2018-07-22T20:23:13.385Z,63.24
2018-07-22T20:25:42.214Z,63.62
2018-07-22T20:28:10.791Z,63.08
2018-07-22T20:30:43.466Z,63.20
2018-07-22T20:33:12.227Z,63.24
2018-07-22T20:35:41.607Z,63.75
2018-07-22T20:38:10.142Z,63.10
2018-07-22T20:40:38.704Z,62.82
2018-07-22T20:43:07.322Z,62.61
2018-07-22T20:45:36.145Z,63.10
2018-07-22T20:48:04.708Z,62.68
2018-07-22T20:50:33.368Z,62.76
2018-07-22T20:53:02.239Z,63.26
2018-07-22T20:55:30.840Z,63.35
2018-07-22T20:57:59.670Z,64.21
2018-07-22T21:00:28.491Z,64.60
2018-07-22T21:02:57.057Z,65.03
2018-07-22T21:05:25.545Z,64.87
2018-07-22T21:07:54.003Z,65.03
2018-07-22T21:10:22.489Z,65.21
2018-07-22T21:13:03.134Z,65.08
2018-07-22T21:15:31.953Z,65.65
2018-07-22T21:18:00.679Z,65.91
2018-07-22T21:20:29.228Z,66.75
2018-07-22T21:22:57.818Z,65.36
2018-07-22T21:25:26.263Z,64.03
2018-07-22T21:27:54.776Z,64.09
2018-07-22T21:30:23.276Z,64.06
2018-07-22T21:32:51.835Z,63.98
2018-07-22T21:35:20.332Z,64.29
2018-07-22T21:37:48.900Z,65.14
2018-07-22T21:40:17.408Z,65.58
2018-07-22T21:42:46.033Z,66.02
2018-07-22T21:45:14.682Z,66.84
2018-07-22T21:47:43.517Z,66.39
2018-07-22T21:50:12.082Z,67.01
2018-07-22T21:52:40.608Z,66.76
2018-07-22T21:55:09.106Z,66.67
2018-07-22T21:57:38.063Z,66.78
2018-07-22T22:00:21.143Z,66.85
2018-07-22T22:02:49.863Z,66.10
2018-07-22T22:05:18.558Z,66.26
2018-07-22T22:07:47.794Z,67.14
2018-07-22T22:10:16.440Z,68.23
2018-07-22T22:12:45.179Z,70.37
2018-07-22T22:15:19.032Z,71.29
2018-07-22T22:17:47.534Z,71.99
2018-07-22T22:20:16.106Z,72.67
2018-07-22T22:22:44.777Z,73.11
2018-07-22T22:25:13.303Z,72.94
2018-07-22T22:27:41.830Z,73.30
2018-07-22T22:30:11.935Z,73.37
2018-07-22T22:32:40.528Z,73.62
2018-07-22T22:35:09.536Z,73.69
2018-07-22T22:37:38.263Z,73.80
2018-07-22T22:40:07.129Z,73.47
2018-07-22T22:42:35.702Z,73.72
2018-07-22T22:45:04.387Z,74.06
2018-07-22T22:47:32.851Z,73.63
2018-07-22T22:50:01.450Z,74.37
2018-07-22T22:52:34.330Z,74.72
2018-07-22T22:55:02.873Z,75.16
2018-07-22T22:57:31.511Z,75.45
2018-07-22T23:00:00.065Z,76.00
2018-07-22T23:02:35.142Z,76.58
2018-07-22T23:05:04.306Z,77.10
2018-07-22T23:07:32.826Z,77.08
2018-07-22T23:10:01.576Z,77.46
2018-07-22T23:12:30.070Z,77.87
2018-07-22T23:14:58.557Z,78.93
2018-07-22T23:17:27.207Z,79.52
2018-07-22T23:19:56.007Z,80.41
2018-07-22T23:22:24.610Z,80.86
2018-07-22T23:24:53.148Z,81.58
2018-07-22T23:27:21.683Z,82.22
2018-07-22T23:29:50.701Z,81.76
2018-07-22T23:32:19.171Z,82.24
2018-07-22T23:34:47.712Z,81.91
2018-07-22T23:37:16.227Z,81.72
2018-07-22T23:39:44.757Z,81.60
2018-07-22T23:42:13.362Z,82.46
2018-07-22T23:44:42.114Z,82.99
2018-07-22T23:47:10.606Z,83.22
2018-07-22T23:49:39.226Z,82.78
2018-07-22T23:52:07.747Z,83.30
2018-07-22T23:54:36.282Z,83.78
2018-07-22T23:57:04.814Z,84.20
2018-07-22T23:59:33.640Z,84.28
